Time;durP1;ratioP1;P1;durP2;ratioP2;P2;SDS_P1;SDS_P2;PMS_P1;PMS_P2;Temp;Humidity;BMP_temperature;BMP_pressure;BME280_temperature;BME280_humidity;BME280_pressure;Samples;Min_cycle;Max_cycle;Signal;HPM_P1;HPM_P2
2023/10/07 00:00:16;;;;;;;;;;;;;;;16.01;74.34;101084.25;4218513;28;20030;-71
2023/10/07 00:02:21;;;;;;;;;;;;;;;16.01;74.39;101080.69;4220849;28;20019;-71
2023/10/07 00:04:23;;;;;;;;;;;;;;;16.02;74.16;101080.50;4220544;28;20018;-71
2023/10/07 00:06:27;;;;;;;;;;;;;;;16.03;74.04;101084.03;4221459;28;20023;-72
2023/10/07 00:08:29;;;;;;;;;;;;;;;16.03;73.98;101093.06;4221912;28;20015;-71
2023/10/07 00:10:37;;;;;;;;;;;;;;;16.05;74.29;101095.59;4221631;28;20011;-72
2023/10/07 00:12:40;;;;;;;;;;;;;;;16.04;74.71;101091.19;4221708;28;20002;-72
2023/10/07 00:14:42;;;;;;;;;;;;;;;16.04;74.41;101078.38;4221421;28;20628;-71
2023/10/07 00:16:46;;;;;;;;;;;;;;;16.05;74.54;101081.97;4221704;28;20480;-71
2023/10/07 00:18:50;;;;;;;;;;;;;;;16.06;74.33;101071.91;4221512;28;19924;-72
2023/10/07 00:20:54;;;;;;;;;;;;;;;16.08;74.21;101069.81;4221539;28;20027;-71
2023/10/07 00:23:00;;;;;;;;;;;;;;;16.08;74.59;101062.50;4219604;28;20006;-72
2023/10/07 00:25:05;;;;;;;;;;;;;;;16.09;74.46;101060.59;4221828;28;20039;-73
2023/10/07 00:27:20;;;;;;;;;;;;;;;16.08;74.70;101051.59;4221488;28;20022;-71
2023/10/07 00:29:23;;;;;;;;;;;;;;;16.08;74.53;101067.94;4220207;28;20034;-72
2023/10/07 00:31:27;;;;;;;;;;;;;;;16.09;74.50;101057.88;4220370;28;20022;-70
2023/10/07 00:33:45;;;;;;;;;;;;;;;16.09;74.65;101061.44;4219907;28;20031;-71
2023/10/07 00:35:49;;;;;;;;;;;;;;;16.11;75.17;101058.50;4221280;28;20015;-71
2023/10/07 00:37:52;;;;;;;;;;;;;;;16.11;74.91;101051.19;4220311;28;20011;-71
2023/10/07 00:39:54;;;;;;;;;;;;;;;16.10;74.97;101071.28;4220054;28;20453;-71
2023/10/07 00:41:59;;;;;;;;;;;;;;;16.11;74.75;101055.78;4220293;28;20027;-72
2023/10/07 00:44:16;;;;;;;;;;;;;;;16.12;75.03;101052.00;4221302;28;20015;-71
2023/10/07 00:46:28;;;;;;;;;;;;;;;16.14;74.78;101044.47;4218845;28;20354;-72
2023/10/07 00:48:42;;;;;;;;;;;;;;;16.14;75.01;101031.66;4219181;28;20015;-70
2023/10/07 00:50:45;;;;;;;;;;;;;;;16.15;75.10;101037.97;4221218;28;20031;-71
2023/10/07 00:52:55;;;;;;;;;;;;;;;16.18;75.01;101051.19;4218943;28;20023;-72
2023/10/07 00:55:00;;;;;;;;;;;;;;;16.17;75.28;101044.88;4221518;27;20015;-71
2023/10/07 00:57:10;;;;;;;;;;;;;;;16.17;75.11;101046.78;4221300;28;20027;-72
2023/10/07 00:59:15;;;;;;;;;;;;;;;16.18;75.19;101040.28;4218366;28;20331;-71
2023/10/07 01:01:19;;;;;;;;;;;;;;;16.18;75.86;101041.13;4220240;28;19927;-73
2023/10/07 01:03:32;;;;;;;;;;;;;;;16.19;75.35;101045.53;4220710;28;20426;-73
2023/10/07 01:05:33;;;;;;;;;;;;;;;16.20;75.10;101044.47;4220846;28;20010;-72
2023/10/07 01:07:36;;;;;;;;;;;;;;;16.20;75.25;101040.91;4221396;28;20022;-72
2023/10/07 01:09:39;;;;;;;;;;;;;;;16.21;75.37;101035.25;4220585;28;20023;-72
2023/10/07 01:11:45;;;;;;;;;;;;;;;16.21;75.32;101045.31;4218921;28;20768;-72
2023/10/07 01:13:50;;;;;;;;;;;;;;;16.25;75.56;101043.00;4221172;28;20043;-72
2023/10/07 01:15:54;;;;;;;;;;;;;;;16.22;75.48;101025.19;4219212;28;20039;-73
2023/10/07 01:17:57;;;;;;;;;;;;;;;16.22;75.33;101022.47;4203110;28;20019;-72
2023/10/07 01:20:06;;;;;;;;;;;;;;;16.22;75.24;101030.63;4219933;28;20713;-72
2023/10/07 01:22:18;;;;;;;;;;;;;;;16.25;75.43;101040.28;4221157;28;20406;-72
2023/10/07 01:24:34;;;;;;;;;;;;;;;16.24;75.78;101020.38;4219888;28;20010;-72
2023/10/07 01:26:41;;;;;;;;;;;;;;;16.23;75.61;101024.16;4235492;27;20010;-71
2023/10/07 01:28:44;;;;;;;;;;;;;;;16.25;75.61;101021.22;4204034;28;20015;-72
2023/10/07 01:31:07;;;;;;;;;;;;;;;16.24;75.42;101031.28;4233034;27;20026;-72
2023/10/07 01:33:24;;;;;;;;;;;;;;;16.26;75.56;101033.81;4236281;27;20018;-72
2023/10/07 01:35:32;;;;;;;;;;;;;;;16.24;76.16;101031.28;4220204;28;20007;-72
2023/10/07 01:37:43;;;;;;;;;;;;;;;16.24;76.14;101027.69;4218349;28;20007;-72
2023/10/07 01:39:45;;;;;;;;;;;;;;;16.24;75.85;101041.31;4216222;28;19963;-72
2023/10/07 01:41:46;;;;;;;;;;;;;;;16.26;75.68;101042.81;4219770;28;20035;-71
2023/10/07 01:43:59;;;;;;;;;;;;;;;16.28;75.86;101039.88;4235346;27;20409;-72
2023/10/07 01:46:10;;;;;;;;;;;;;;;16.25;75.68;101043.84;4219603;28;20023;-73
2023/10/07 01:48:12;;;;;;;;;;;;;;;16.26;76.13;101033.81;4220862;28;20018;-72
2023/10/07 01:50:13;;;;;;;;;;;;;;;16.28;76.08;101024.34;4218518;28;20030;-72
2023/10/07 01:52:15;;;;;;;;;;;;;;;16.29;76.24;101014.31;4219278;28;20006;-72
2023/10/07 01:54:19;;;;;;;;;;;;;;;16.28;76.12;101018.06;4220687;28;20358;-73
2023/10/07 01:56:22;;;;;;;;;;;;;;;16.26;76.05;101023.72;4219623;28;20022;-73
2023/10/07 01:58:25;;;;;;;;;;;;;;;16.29;76.20;101011.59;4217654;28;20027;-72
2023/10/07 02:00:43;;;;;;;;;;;;;;;16.28;76.19;101037.16;4215252;28;20388;-72
2023/10/07 02:02:49;;;;;;;;;;;;;;;16.29;76.30;101030.66;4218519;28;20432;-73
2023/10/07 02:04:54;;;;;;;;;;;;;;;16.29;76.57;101014.31;4219709;28;20412;-72
2023/10/07 02:06:57;;;;;;;;;;;;;;;16.30;76.35;101007.78;4218311;28;20038;-72
2023/10/07 02:09:05;;;;;;;;;;;;;;;16.30;76.72;101016.81;4220925;28;20011;-73
2023/10/07 02:11:09;;;;;;;;;;;;;;;16.29;76.65;101019.75;4219330;28;20015;-72
2023/10/07 02:13:14;;;;;;;;;;;;;;;16.29;76.60;101020.59;4220063;28;20536;-72
2023/10/07 02:15:19;;;;;;;;;;;;;;;16.29;76.97;101012.41;4220517;28;20011;-73
2023/10/07 02:17:25;;;;;;;;;;;;;;;16.29;76.83;101014.31;4201549;28;20031;-72
2023/10/07 02:19:29;;;;;;;;;;;;;;;16.30;76.59;101019.56;4219261;28;20014;-74
2023/10/07 02:21:31;;;;;;;;;;;;;;;16.32;76.61;101013.91;4217102;28;20022;-74
2023/10/07 02:23:36;;;;;;;;;;;;;;;16.32;76.61;101024.81;4219442;28;20372;-74
2023/10/07 02:25:49;;;;;;;;;;;;;;;16.34;76.79;101009.06;4218293;28;19971;-74
2023/10/07 02:27:54;;;;;;;;;;;;;;;16.32;76.86;101006.56;4219944;28;20014;-74
2023/10/07 02:29:57;;;;;;;;;;;;;;;16.34;76.73;100993.53;4218959;28;20015;-74
2023/10/07 02:32:12;;;;;;;;;;;;;;;16.33;76.53;100996.47;4219650;28;20058;-74
2023/10/07 02:34:28;;;;;;;;;;;;;;;16.37;76.77;101000.47;4218280;28;20039;-73
2023/10/07 02:36:31;;;;;;;;;;;;;;;16.37;76.68;100997.75;4220057;28;20015;-73
2023/10/07 02:38:38;;;;;;;;;;;;;;;16.38;76.53;100996.72;4201780;28;20032;-73
2023/10/07 02:40:49;;;;;;;;;;;;;;;16.36;76.67;100996.06;4217889;28;20453;-73
2023/10/07 02:42:54;;;;;;;;;;;;;;;16.35;76.83;100992.50;4219517;28;20026;-73
2023/10/07 02:45:11;;;;;;;;;;;;;;;16.37;76.54;100990.41;4220806;28;20027;-74
2023/10/07 02:47:13;;;;;;;;;;;;;;;16.35;76.90;100981.59;4202599;28;19924;-72
2023/10/07 02:49:20;;;;;;;;;;;;;;;16.34;77.28;100985.38;4218501;28;20470;-73
2023/10/07 02:51:22;;;;;;;;;;;;;;;16.35;77.28;100999.84;4219845;28;20449;-73
2023/10/07 02:53:24;;;;;;;;;;;;;;;16.35;76.98;100997.13;4218792;28;20366;-73
2023/10/07 02:55:38;;;;;;;;;;;;;;;16.35;76.85;100995.22;4220181;28;20031;-73
2023/10/07 02:57:39;;;;;;;;;;;;;;;16.36;76.93;100991.47;4218852;28;20023;-73
2023/10/07 02:59:50;;;;;;;;;;;;;;;16.36;77.20;100986.00;4217241;28;20445;-73
2023/10/07 03:04:12;;;;;;;;;;;;;;;16.35;77.15;101000.69;4219665;28;20014;-73
2023/10/07 03:06:17;;;;;;;;;;;;;;;16.36;77.24;100998.78;4220246;28;20014;-74
2023/10/07 03:08:20;;;;;;;;;;;;;;;16.35;77.09;100994.41;4219318;28;20418;-72
2023/10/07 03:10:33;;;;;;;;;;;;;;;16.36;76.84;100996.06;4200184;28;20007;-74
2023/10/07 03:12:36;;;;;;;;;;;;;;;16.36;76.99;100987.88;4218597;28;20010;-73
2023/10/07 03:14:38;;;;;;;;;;;;;;;16.35;77.08;100978.03;4218752;28;20006;-74
2023/10/07 03:16:46;;;;;;;;;;;;;;;16.34;77.32;100985.38;4218967;28;20030;-72
2023/10/07 03:18:56;;;;;;;;;;;;;;;16.34;77.08;100979.91;4218607;28;20093;-72
2023/10/07 03:21:06;;;;;;;;;;;;;;;16.35;76.94;100987.06;4217312;28;20011;-72
2023/10/07 03:23:15;;;;;;;;;;;;;;;16.35;77.20;100978.88;4218952;28;20019;-73
2023/10/07 03:25:18;;;;;;;;;;;;;;;16.36;77.12;100975.13;4219866;28;20134;-73
2023/10/07 03:27:25;;;;;;;;;;;;;;;16.36;77.08;100982.44;4219129;28;20015;-73
2023/10/07 03:29:30;;;;;;;;;;;;;;;16.35;77.34;100983.50;4218917;28;20416;-73
2023/10/07 03:31:35;;;;;;;;;;;;;;;16.34;77.46;100984.53;4218858;28;19956;-72
2023/10/07 03:33:45;;;;;;;;;;;;;;;16.34;77.87;100987.25;4218590;28;20476;-74
2023/10/07 03:36:08;;;;;;;;;;;;;;;16.32;77.94;100990.19;4218668;28;20022;-73
2023/10/07 03:38:09;;;;;;;;;;;;;;;16.33;77.71;100977.41;4219928;28;20020;-74
2023/10/07 03:40:25;;;;;;;;;;;;;;;16.33;77.82;100977.41;4219583;28;20015;-73
2023/10/07 03:42:27;;;;;;;;;;;;;;;16.32;77.91;100984.75;4219528;28;20051;-73
2023/10/07 03:44:31;;;;;;;;;;;;;;;16.30;77.85;100977.81;4223117;28;20956;-73
2023/10/07 03:46:34;;;;;;;;;;;;;;;16.30;77.65;100975.94;4220959;28;20024;-73
2023/10/07 03:48:39;;;;;;;;;;;;;;;16.30;77.70;100981.41;4222240;28;20015;-73
2023/10/07 03:50:41;;;;;;;;;;;;;;;16.30;77.82;100977.81;4222223;28;19931;-73
2023/10/07 03:52:50;;;;;;;;;;;;;;;16.30;78.02;100978.69;4221745;28;20363;-72
2023/10/07 03:54:53;;;;;;;;;;;;;;;16.30;77.88;100980.53;4222540;28;20455;-73
2023/10/07 03:56:55;;;;;;;;;;;;;;;16.31;77.80;100977.59;4236436;27;20363;-72
2023/10/07 03:58:59;;;;;;;;;;;;;;;16.31;77.63;100987.69;4223150;28;20030;-74
2023/10/07 04:01:11;;;;;;;;;;;;;;;16.32;78.19;100983.91;4220355;28;20034;-73
2023/10/07 04:03:15;;;;;;;;;;;;;;;16.31;78.11;100982.22;4221418;28;20015;-73
2023/10/07 04:05:31;;;;;;;;;;;;;;;16.31;78.14;100995.84;4222241;28;20015;-73
2023/10/07 04:07:33;;;;;;;;;;;;;;;16.31;77.88;100985.78;4221447;28;20019;-74
2023/10/07 04:09:36;;;;;;;;;;;;;;;16.31;78.18;100991.22;4221376;28;20011;-73
2023/10/07 04:11:39;;;;;;;;;;;;;;;16.31;78.07;101002.13;4220388;28;19989;-73
2023/10/07 04:13:43;;;;;;;;;;;;;;;16.33;77.66;100991.03;4222702;28;20528;-73
2023/10/07 04:15:51;;;;;;;;;;;;;;;16.33;78.20;100996.47;4220811;28;20022;-74
2023/10/07 04:17:53;;;;;;;;;;;;;;;16.32;77.87;100989.38;4221405;28;20433;-74
2023/10/07 04:19:58;;;;;;;;;;;;;;;16.33;78.24;100985.56;4221932;28;20011;-74
2023/10/07 04:22:00;;;;;;;;;;;;;;;16.33;77.89;100985.56;4222228;28;20035;-74
2023/10/07 04:24:01;;;;;;;;;;;;;;;16.31;78.43;100987.69;4222424;28;20027;-73
2023/10/07 04:26:08;;;;;;;;;;;;;;;16.29;78.62;100987.06;4221359;28;20046;-73
2023/10/07 04:28:13;;;;;;;;;;;;;;;16.29;78.77;100987.88;4221123;28;20057;-74
2023/10/07 04:30:16;;;;;;;;;;;;;;;16.27;78.90;101005.47;4220633;27;20023;-74
2023/10/07 04:32:21;;;;;;;;;;;;;;;16.28;78.95;100996.28;4220777;28;19928;-73
2023/10/07 04:34:22;;;;;;;;;;;;;;;16.30;78.51;100989.56;4236885;27;20022;-73
2023/10/07 04:36:33;;;;;;;;;;;;;;;16.29;78.82;100992.50;4221189;28;20456;-73
2023/10/07 04:38:52;;;;;;;;;;;;;;;16.28;78.89;100991.66;4236807;27;20023;-74
2023/10/07 04:43:47;;;;;;;;;;;;;;;16.28;78.94;100988.09;4221347;28;20438;-73
2023/10/07 04:45:53;;;;;;;;;;;;;;;16.30;78.62;100988.72;4221110;28;20575;-73
2023/10/07 04:48:01;;;;;;;;;;;;;;;16.30;78.82;100975.09;4221537;28;20012;-73
2023/10/07 04:50:07;;;;;;;;;;;;;;;16.30;78.82;100981.41;4221812;28;20381;-73
2023/10/07 04:52:10;;;;;;;;;;;;;;;16.30;78.87;100969.63;4202941;28;20024;-71
2023/10/07 04:54:12;;;;;;;;;;;;;;;16.31;78.45;100984.94;4221551;28;20481;-72
2023/10/07 04:56:20;;;;;;;;;;;;;;;16.31;78.96;100974.88;4220912;28;20022;-73
2023/10/07 04:58:24;;;;;;;;;;;;;;;16.31;78.82;100965.88;4221301;28;20014;-73
2023/10/07 05:00:36;;;;;;;;;;;;;;;16.30;78.98;100958.72;4220414;28;20018;-73
2023/10/07 05:02:38;;;;;;;;;;;;;;;16.29;79.25;100954.34;4220364;28;20018;-73
2023/10/07 05:04:41;;;;;;;;;;;;;;;16.28;79.20;100960.84;4222140;28;19988;-73
2023/10/07 05:06:43;;;;;;;;;;;;;;;16.29;78.94;100965.25;4219270;28;20506;-73
2023/10/07 05:08:45;;;;;;;;;;;;;;;16.27;79.29;100951.84;4221509;28;20014;-70
2023/10/07 05:10:52;;;;;;;;;;;;;;;16.29;79.33;100957.06;4221505;28;20669;-73
2023/10/07 05:12:55;;;;;;;;;;;;;;;16.28;79.47;100961.66;4219935;28;20031;-73
2023/10/07 05:15:00;;;;;;;;;;;;;;;16.28;79.48;100960.84;4221532;28;20421;-73
2023/10/07 05:17:02;;;;;;;;;;;;;;;16.29;79.36;100962.53;4221373;28;20018;-73
2023/10/07 05:19:03;;;;;;;;;;;;;;;16.30;78.95;100945.97;4221848;28;20007;-73
2023/10/07 05:21:06;;;;;;;;;;;;;;;16.31;79.15;100958.53;4220110;28;20019;-73
2023/10/07 05:23:09;;;;;;;;;;;;;;;16.31;79.80;100957.69;4220469;28;20014;-73
2023/10/07 05:25:10;;;;;;;;;;;;;;;16.30;79.79;100965.03;4219930;28;20018;-73
2023/10/07 05:27:13;;;;;;;;;;;;;;;16.29;79.78;100962.53;4219789;28;20434;-73
2023/10/07 05:29:18;;;;;;;;;;;;;;;16.28;80.18;100963.56;4219866;28;19939;-74
2023/10/07 05:31:21;;;;;;;;;;;;;;;16.28;79.91;100979.91;4219679;28;20066;-72
2023/10/07 05:33:25;;;;;;;;;;;;;;;16.29;80.26;100982.44;4220688;28;20035;-73
2023/10/07 05:35:27;;;;;;;;;;;;;;;16.29;79.92;100974.25;4219945;28;19924;-73
2023/10/07 05:37:29;;;;;;;;;;;;;;;16.30;79.57;100978.69;4220646;28;20044;-73
2023/10/07 05:39:32;;;;;;;;;;;;;;;16.30;79.91;100967.78;4219481;28;20032;-73
2023/10/07 05:41:39;;;;;;;;;;;;;;;16.29;80.15;100968.81;4219974;28;20354;-73
2023/10/07 05:43:43;;;;;;;;;;;;;;;16.31;80.26;100971.31;4220868;28;20015;-74
2023/10/07 05:45:50;;;;;;;;;;;;;;;16.32;80.25;100967.56;4203488;28;20020;-74
2023/10/07 05:47:54;;;;;;;;;;;;;;;16.33;80.65;100961.03;4219574;28;20026;-74
2023/10/07 05:49:56;;;;;;;;;;;;;;;16.33;80.75;100961.03;4220430;28;20007;-74
2023/10/07 05:51:59;;;;;;;;;;;;;;;16.30;80.59;100959.59;4219788;28;20645;-74
2023/10/07 05:54:01;;;;;;;;;;;;;;;16.34;79.92;100965.47;4221133;28;20015;-74
2023/10/07 05:56:05;;;;;;;;;;;;;;;16.34;79.71;100954.56;4220584;28;19924;-74
2023/10/07 05:58:07;;;;;;;;;;;;;;;16.34;79.78;100970.91;4220464;28;20077;-74
2023/10/07 06:00:09;;;;;;;;;;;;;;;16.35;80.22;100961.69;4217619;28;20019;-74
2023/10/07 06:02:14;;;;;;;;;;;;;;;16.35;80.88;100961.69;4217211;28;20035;-74
2023/10/07 06:04:19;;;;;;;;;;;;;;;16.33;80.78;100959.19;4218951;28;20485;-73
2023/10/07 06:06:21;;;;;;;;;;;;;;;16.36;80.15;100974.25;4216365;28;20028;-73
2023/10/07 06:08:26;;;;;;;;;;;;;;;16.35;80.08;100948.06;4216057;28;20452;-73
2023/10/07 06:10:33;;;;;;;;;;;;;;;16.35;80.12;100981.59;4218967;28;20026;-71
2023/10/07 06:12:35;;;;;;;;;;;;;;;16.38;80.23;100983.09;4201359;28;20465;-71
2023/10/07 06:14:37;;;;;;;;;;;;;;;16.37;80.61;100981.41;4202339;28;20019;-71
2023/10/07 06:16:42;;;;;;;;;;;;;;;16.37;80.08;100976.78;4202154;28;19924;-69
2023/10/07 06:18:44;;;;;;;;;;;;;;;16.38;80.20;100985.81;4219154;28;19967;-71
2023/10/07 06:20:48;;;;;;;;;;;;;;;16.38;80.89;100985.81;4219012;28;20466;-72
2023/10/07 06:22:50;;;;;;;;;;;;;;;16.37;80.18;100990.41;4218739;28;20027;-72
2023/10/07 06:24:55;;;;;;;;;;;;;;;16.38;80.73;101000.25;4219299;28;20040;-73
2023/10/07 06:26:56;;;;;;;;;;;;;;;16.39;80.25;100990.19;4217791;28;20026;-74
2023/10/07 06:29:05;;;;;;;;;;;;;;;16.41;80.60;100990.84;4218392;28;20447;-71
2023/10/07 06:31:10;;;;;;;;;;;;;;;16.40;80.68;100991.88;4217777;28;20010;-72
2023/10/07 06:33:13;;;;;;;;;;;;;;;16.41;81.47;101001.75;4217959;28;20027;-72
2023/10/07 06:35:21;;;;;;;;;;;;;;;16.40;81.41;101011.78;4218454;28;20010;-73
2023/10/07 06:37:28;;;;;;;;;;;;;;;16.41;81.19;101015.38;4216582;28;19939;-72
2023/10/07 06:39:30;;;;;;;;;;;;;;;16.39;81.59;101010.13;4218208;28;20473;-71
2023/10/07 06:41:31;;;;;;;;;;;;;;;16.42;81.16;101010.75;4218941;28;20448;-72
2023/10/07 06:43:34;;;;;;;;;;;;;;;16.42;81.46;101017.03;4217132;28;19923;-71
2023/10/07 06:45:38;;;;;;;;;;;;;;;16.42;81.64;101025.22;4216571;28;20043;-67
2023/10/07 06:47:40;;;;;;;;;;;;;;;16.40;81.91;101035.50;4217392;28;20022;-73
2023/10/07 06:49:42;;;;;;;;;;;;;;;16.40;82.00;101028.13;4198587;28;20023;-74
2023/10/07 06:51:44;;;;;;;;;;;;;;;16.42;81.98;101029.84;4218320;28;20373;-75
2023/10/07 06:53:47;;;;;;;;;;;;;;;16.43;81.83;101034.25;4219300;28;20031;-74
2023/10/07 06:55:51;;;;;;;;;;;;;;;16.38;82.92;101024.78;4219493;28;20347;-74
2023/10/07 06:57:56;;;;;;;;;;;;;;;16.39;83.38;101037.38;4217618;28;19931;-73
2023/10/07 06:59:58;;;;;;;;;;;;;;;16.37;83.45;101036.75;4216352;28;20018;-76
2023/10/07 07:02:06;;;;;;;;;;;;;;;16.39;82.63;101036.53;4217722;28;20019;-79
2023/10/07 07:04:10;;;;;;;;;;;;;;;16.38;82.98;101046.59;4215651;28;20023;-77
2023/10/07 07:06:17;;;;;;;;;;;;;;;16.39;83.22;101045.56;4215993;28;20019;-76
2023/10/07 07:08:22;;;;;;;;;;;;;;;16.39;84.40;101041.97;4218686;28;20020;-72
2023/10/07 07:10:30;;;;;;;;;;;;;;;16.40;82.98;101052.69;4220729;28;20010;-76
2023/10/07 07:12:33;;;;;;;;;;;;;;;16.37;84.21;101042.19;4218826;28;20377;-78
2023/10/07 07:14:36;;;;;;;;;;;;;;;16.37;85.73;101053.09;4221277;28;20213;-76
2023/10/07 07:16:42;;;;;;;;;;;;;;;16.37;86.04;101057.72;4218967;28;20911;-76
2023/10/07 07:18:44;;;;;;;;;;;;;;;16.36;85.35;101058.75;4220738;28;20030;-77
2023/10/07 07:23:10;;;;;;;;;;;;;;;16.35;86.69;101057.91;4221482;28;20454;-76
2023/10/07 07:25:12;;;;;;;;;;;;;;;16.34;85.09;101053.50;4221641;28;20022;-72
2023/10/07 07:27:17;;;;;;;;;;;;;;;16.33;86.55;101065.47;4219830;28;20643;-73
2023/10/07 07:29:18;;;;;;;;;;;;;;;16.32;87.85;101058.34;4222970;28;20434;-75
2023/10/07 07:31:26;;;;;;;;;;;;;;;16.31;88.08;101056.66;4221207;28;20047;-75
2023/10/07 07:33:34;;;;;;;;;;;;;;;16.32;86.67;101057.50;4220855;28;20010;-74
2023/10/07 07:35:40;;;;;;;;;;;;;;;16.31;87.38;101058.53;4221263;28;20027;-75
2023/10/07 07:37:42;;;;;;;;;;;;;;;16.30;86.98;101056.84;4203580;28;20369;-77
2023/10/07 07:39:47;;;;;;;;;;;;;;;16.31;85.83;101058.53;4221239;28;20381;-76
2023/10/07 07:41:56;;;;;;;;;;;;;;;16.29;86.64;101068.81;4220067;28;20471;-72
2023/10/07 07:43:59;;;;;;;;;;;;;;;16.29;87.36;101064.19;4220558;28;20461;-74
2023/10/07 07:46:28;;;;;;;;;;;;;;;16.30;86.88;101052.25;4221884;28;20022;-76
2023/10/07 07:48:36;;;;;;;;;;;;;;;16.30;86.11;101063.16;4221473;28;20152;-76
2023/10/07 07:50:41;;;;;;;;;;;;;;;16.29;87.41;101063.38;4220447;28;20034;-73
2023/10/07 07:52:43;;;;;;;;;;;;;;;16.28;86.59;101064.41;4218136;28;20011;-74
2023/10/07 07:54:45;;;;;;;;;;;;;;;16.29;86.33;101061.47;4222255;28;20014;-73
2023/10/07 07:56:48;;;;;;;;;;;;;;;16.29;85.91;101060.66;4221336;28;20353;-72
2023/10/07 07:58:52;;;;;;;;;;;;;;;16.30;85.91;101060.44;4220645;28;20015;-73
2023/10/07 08:01:05;;;;;;;;;;;;;;;16.30;86.32;101062.31;4217146;28;19942;-74
2023/10/07 08:03:09;;;;;;;;;;;;;;;16.31;86.13;101064.81;4219289;28;20445;-72
2023/10/07 08:05:13;;;;;;;;;;;;;;;16.31;85.59;101056.66;4221443;28;20022;-72
2023/10/07 08:07:24;;;;;;;;;;;;;;;16.33;85.09;101051.84;4220443;28;20030;-71
2023/10/07 08:09:28;;;;;;;;;;;;;;;16.35;85.70;101052.47;4221450;28;20003;-73
2023/10/07 08:11:35;;;;;;;;;;;;;;;16.34;85.84;101049.94;4219943;28;21069;-74
2023/10/07 08:13:37;;;;;;;;;;;;;;;16.34;85.60;101055.41;4220491;28;20139;-72
2023/10/07 08:15:40;;;;;;;;;;;;;;;16.35;86.16;101079.72;4222238;28;20861;-71
2023/10/07 08:17:45;;;;;;;;;;;;;;;16.35;85.99;101066.09;4220021;28;20015;-71
2023/10/07 08:19:50;;;;;;;;;;;;;;;16.36;85.67;101067.78;4218502;28;20042;-72
2023/10/07 08:21:52;;;;;;;;;;;;;;;16.35;85.57;101066.09;4220704;28;19987;-70
2023/10/07 08:23:54;;;;;;;;;;;;;;;16.35;85.74;101073.44;4221634;28;20011;-73
2023/10/07 08:26:08;;;;;;;;;;;;;;;16.36;85.40;101072.38;4222240;28;20019;-73
2023/10/07 08:28:19;;;;;;;;;;;;;;;16.37;86.09;101071.34;4221878;28;20370;-71
2023/10/07 08:30:37;;;;;;;;;;;;;;;16.37;85.92;101074.91;4221156;28;20038;-71
2023/10/07 08:32:41;;;;;;;;;;;;;;;16.38;85.82;101112.03;4217216;28;20018;-70
2023/10/07 08:34:47;;;;;;;;;;;;;;;16.38;86.37;101081.22;4218744;28;20453;-69
2023/10/07 08:36:49;;;;;;;;;;;;;;;16.35;86.31;101070.72;4218780;28;20026;-71
2023/10/07 08:38:52;;;;;;;;;;;;;;;16.37;86.72;101069.44;4220027;28;20016;-71
2023/10/07 08:41:04;;;;;;;;;;;;;;;16.39;86.03;101072.81;4219990;28;20518;-73
2023/10/07 08:43:06;;;;;;;;;;;;;;;16.39;86.38;101069.25;4220233;28;20010;-71
2023/10/07 08:45:14;;;;;;;;;;;;;;;16.38;87.01;101067.59;4218901;28;20340;-70
2023/10/07 08:47:17;;;;;;;;;;;;;;;16.39;87.67;101061.06;4215512;28;20026;-70
2023/10/07 08:49:25;;;;;;;;;;;;;;;16.38;86.68;101071.13;4231104;27;20351;-71
2023/10/07 08:51:32;;;;;;;;;;;;;;;16.39;86.17;101072.81;4218619;28;20489;-69
2023/10/07 08:53:37;;;;;;;;;;;;;;;16.41;85.90;101078.06;4218864;28;19991;-70
2023/10/07 08:55:39;;;;;;;;;;;;;;;16.42;85.42;101068.00;4220425;28;20014;-70
2023/10/07 08:57:46;;;;;;;;;;;;;;;16.42;85.23;101077.00;4217531;28;20019;-70
2023/10/07 08:59:52;;;;;;;;;;;;;;;16.42;85.98;101068.81;4219569;28;20549;-70
2023/10/07 09:01:57;;;;;;;;;;;;;;;16.43;85.61;101062.34;4219721;28;20445;-69
2023/10/07 09:04:03;;;;;;;;;;;;;;;16.43;86.61;101065.06;4220430;28;20238;-71
2023/10/07 09:06:08;;;;;;;;;;;;;;;16.43;86.58;101050.59;4218685;28;20020;-69
2023/10/07 09:08:12;;;;;;;;;;;;;;;16.43;85.92;101051.44;4219920;28;20014;-70
2023/10/07 09:10:15;;;;;;;;;;;;;;;16.45;86.00;101070.31;4218482;28;20382;-70
2023/10/07 09:12:29;;;;;;;;;;;;;;;16.45;85.89;101060.22;4218037;28;20014;-72
2023/10/07 09:14:33;;;;;;;;;;;;;;;16.48;85.68;101051.63;4217735;28;20027;-71
2023/10/07 09:16:35;;;;;;;;;;;;;;;16.48;85.73;101076.16;4218236;28;20509;-73
2023/10/07 09:18:40;;;;;;;;;;;;;;;16.48;86.64;101064.44;4212449;28;20014;-73
2023/10/07 09:20:45;;;;;;;;;;;;;;;16.49;86.68;101055.19;4217157;28;20353;-74
2023/10/07 09:22:53;;;;;;;;;;;;;;;16.49;86.14;101080.59;4217947;28;20024;-73
2023/10/07 09:25:08;;;;;;;;;;;;;;;16.51;86.63;101061.28;4218055;28;19924;-72
2023/10/07 09:27:13;;;;;;;;;;;;;;;16.51;86.71;101048.50;4215632;28;19974;-72
2023/10/07 09:29:15;;;;;;;;;;;;;;;16.49;86.47;101055.19;4217701;28;20036;-72
2023/10/07 09:31:19;;;;;;;;;;;;;;;16.51;86.50;101062.13;4216043;28;20031;-72
2023/10/07 09:33:21;;;;;;;;;;;;;;;16.50;87.19;101054.16;4217842;28;20038;-73
2023/10/07 09:35:23;;;;;;;;;;;;;;;16.53;86.36;101070.09;4217611;28;20015;-71
2023/10/07 09:37:32;;;;;;;;;;;;;;;16.53;86.87;101060.03;4218628;28;20756;-72
2023/10/07 09:39:34;;;;;;;;;;;;;;;16.53;86.22;101051.84;4217836;28;20379;-71
2023/10/07 09:41:37;;;;;;;;;;;;;;;16.55;86.28;101059.81;4215749;28;20015;-71
2023/10/07 09:43:42;;;;;;;;;;;;;;;16.56;86.46;101056.03;4217403;28;20481;-71
2023/10/07 09:45:43;;;;;;;;;;;;;;;16.56;86.53;101056.03;4217292;28;20026;-73
2023/10/07 09:47:46;;;;;;;;;;;;;;;16.55;86.11;101057.94;4217284;28;20309;-72
2023/10/07 09:49:50;;;;;;;;;;;;;;;16.55;86.27;101057.09;4217871;28;20014;-71
2023/10/07 09:51:56;;;;;;;;;;;;;;;16.56;86.16;101059.59;4216861;28;20998;-69
2023/10/07 09:54:10;;;;;;;;;;;;;;;16.56;85.83;101047.88;4217765;28;20570;-70
2023/10/07 09:56:21;;;;;;;;;;;;;;;16.58;85.88;101060.25;4217762;28;20010;-71
2023/10/07 09:58:36;;;;;;;;;;;;;;;16.60;86.30;101059.19;4218670;28;20023;-71
2023/10/07 10:00:41;;;;;;;;;;;;;;;16.61;87.42;101067.16;4217778;28;20038;-73
2023/10/07 10:02:51;;;;;;;;;;;;;;;16.62;86.95;101054.38;4219497;28;19947;-70
2023/10/07 10:04:57;;;;;;;;;;;;;;;16.61;87.93;101052.69;4221965;28;20038;-72
2023/10/07 10:07:12;;;;;;;;;;;;;;;16.61;87.87;101053.53;4220099;28;19978;-71
2023/10/07 10:09:14;;;;;;;;;;;;;;;16.61;88.20;101058.97;4218948;28;20036;-70
2023/10/07 10:11:44;;;;;;;;;;;;;;;16.61;88.63;101056.25;4219333;28;20038;-72
2023/10/07 10:14:09;;;;;;;;;;;;;;;16.62;88.49;101059.84;4218331;28;19995;-72
2023/10/07 10:16:14;;;;;;;;;;;;;;;16.63;87.58;101065.09;4218903;28;20492;-71
2023/10/07 10:18:38;;;;;;;;;;;;;;;16.62;88.00;101052.50;4219441;28;20023;-70
2023/10/07 10:20:43;;;;;;;;;;;;;;;16.63;88.15;101050.59;4218328;28;20015;-70
2023/10/07 10:22:52;;;;;;;;;;;;;;;16.63;87.82;101043.28;4218925;28;20018;-71
2023/10/07 10:25:09;;;;;;;;;;;;;;;16.61;87.13;101048.06;4218903;28;19998;-73
2023/10/07 10:27:21;;;;;;;;;;;;;;;16.61;87.49;101048.06;4218462;28;20014;-73
2023/10/07 10:29:31;;;;;;;;;;;;;;;16.64;87.56;101050.38;4218570;28;20474;-74
2023/10/07 10:31:37;;;;;;;;;;;;;;;16.62;88.07;101033.41;4216009;28;20381;-74
2023/10/07 10:33:39;;;;;;;;;;;;;;;16.62;87.69;101038.03;4219982;28;19970;-72
2023/10/07 10:35:49;;;;;;;;;;;;;;;16.64;88.34;101038.66;4233161;27;19932;-72
2023/10/07 10:38:00;;;;;;;;;;;;;;;16.64;88.53;101049.56;4219542;28;19940;-74
2023/10/07 10:40:14;;;;;;;;;;;;;;;16.63;88.82;101018.72;4218551;28;20400;-71
2023/10/07 10:42:16;;;;;;;;;;;;;;;16.62;88.60;101025.22;4216882;28;20359;-71
2023/10/07 10:44:24;;;;;;;;;;;;;;;16.65;87.82;101022.06;4219853;28;19931;-72
2023/10/07 10:46:28;;;;;;;;;;;;;;;16.65;87.44;101038.44;4217457;28;20027;-72
2023/10/07 10:48:31;;;;;;;;;;;;;;;16.64;88.22;101022.28;4217809;28;20023;-72
2023/10/07 10:50:33;;;;;;;;;;;;;;;16.64;87.86;101022.28;4217384;28;20030;-71
2023/10/07 10:52:34;;;;;;;;;;;;;;;16.64;88.18;101023.09;4218621;28;19927;-73